createdAt,value
2023-01-30T00:00:43.983Z,2.5
2023-01-30T00:03:43.989Z,2.5
2023-01-30T00:06:44.012Z,2.5
2023-01-30T00:09:44.015Z,2.5
2023-01-30T00:12:44.024Z,2.5
2023-01-30T00:15:44.047Z,2.5
2023-01-30T00:18:44.061Z,2.5
2023-01-30T00:21:44.065Z,2.5
2023-01-30T00:24:44.134Z,2.6
2023-01-30T00:27:44.081Z,2.6
2023-01-30T00:30:44.126Z,2.6
2023-01-30T00:33:44.104Z,2.6
2023-01-30T00:36:44.116Z,2.7
2023-01-30T00:39:44.135Z,2.7
2023-01-30T00:42:44.146Z,2.8
2023-01-30T00:45:44.169Z,2.8
2023-01-30T00:48:44.172Z,2.9
2023-01-30T00:51:44.176Z,2.9
2023-01-30T00:54:44.187Z,2.9
2023-01-30T00:57:44.199Z,2.9
2023-01-30T01:00:44.215Z,2.9
2023-01-30T01:03:44.225Z,3
2023-01-30T01:06:44.248Z,3
2023-01-30T01:09:44.248Z,3
2023-01-30T01:12:44.255Z,3
2023-01-30T01:15:44.264Z,2.9
2023-01-30T01:18:44.276Z,2.9
2023-01-30T01:21:44.293Z,2.9
2023-01-30T01:24:44.304Z,2.9
2023-01-30T01:27:44.327Z,2.9
2023-01-30T01:30:44.343Z,2.9
2023-01-30T01:33:44.356Z,2.9
2023-01-30T01:36:55.829Z,2.9
2023-01-30T01:39:44.394Z,2.9
2023-01-30T01:42:44.400Z,2.9
2023-01-30T01:45:44.472Z,2.8
2023-01-30T01:48:44.443Z,2.8
2023-01-30T01:51:44.458Z,2.8
2023-01-30T01:54:44.472Z,2.8
2023-01-30T01:57:44.488Z,2.8
2023-01-30T02:00:44.544Z,2.8
2023-01-30T02:03:44.515Z,2.8
2023-01-30T02:06:44.520Z,2.8
2023-01-30T02:09:44.537Z,2.8
2023-01-30T02:12:44.548Z,2.9
2023-01-30T02:15:44.565Z,2.9
2023-01-30T02:18:44.586Z,2.9
2023-01-30T02:21:44.585Z,2.9
2023-01-30T02:24:44.599Z,2.9
2023-01-30T02:27:44.617Z,2.9
2023-01-30T02:30:44.738Z,2.9
2023-01-30T02:33:44.641Z,2.9
2023-01-30T02:36:44.661Z,2.9
2023-01-30T02:39:44.675Z,3
2023-01-30T02:42:44.687Z,3
2023-01-30T02:45:44.771Z,3
2023-01-30T02:48:44.717Z,3.1
2023-01-30T02:51:44.728Z,3.1
2023-01-30T02:54:44.753Z,3.1
2023-01-30T02:57:44.759Z,3.2
2023-01-30T03:00:44.773Z,3.2
2023-01-30T03:03:44.787Z,3.3
2023-01-30T03:06:44.806Z,3.3
2023-01-30T03:09:44.821Z,3.4
2023-01-30T03:12:44.839Z,3.4
2023-01-30T03:15:44.853Z,3.4
2023-01-30T03:18:44.888Z,3.5
2023-01-30T03:21:44.992Z,3.5
2023-01-30T03:24:44.886Z,3.5
2023-01-30T03:27:44.899Z,3.6
2023-01-30T03:30:44.957Z,3.6
2023-01-30T03:33:44.931Z,3.6
2023-01-30T03:36:44.944Z,3.6
2023-01-30T03:39:44.937Z,3.7
2023-01-30T03:42:44.941Z,3.7
2023-01-30T03:45:44.976Z,3.7
2023-01-30T03:48:44.943Z,3.7
2023-01-30T03:51:44.950Z,3.8
2023-01-30T03:54:44.963Z,3.8
2023-01-30T03:57:44.964Z,3.7
2023-01-30T04:00:44.976Z,3.8
2023-01-30T04:03:45.077Z,3.7
2023-01-30T04:06:44.976Z,3.7
2023-01-30T04:09:44.980Z,3.8
2023-01-30T04:12:44.980Z,3.7
2023-01-30T04:15:44.987Z,3.7
2023-01-30T04:18:44.997Z,3.8
2023-01-30T04:21:45.026Z,3.8
2023-01-30T04:24:45.013Z,3.8
2023-01-30T04:27:45.008Z,3.8
2023-01-30T04:30:45.080Z,3.8
2023-01-30T04:33:45.027Z,3.8
2023-01-30T04:36:45.026Z,3.9
2023-01-30T04:39:45.062Z,3.9
2023-01-30T04:42:45.052Z,3.9
2023-01-30T04:45:45.041Z,3.9
2023-01-30T04:48:45.052Z,3.9
2023-01-30T04:51:45.058Z,3.9
2023-01-30T04:54:45.063Z,3.9
2023-01-30T04:57:45.075Z,3.9
2023-01-30T05:00:45.192Z,3.9
2023-01-30T05:03:45.067Z,3.9
2023-01-30T05:06:45.065Z,3.9
2023-01-30T05:09:45.094Z,3.9
2023-01-30T05:12:45.081Z,4
2023-01-30T05:15:45.099Z,4
2023-01-30T05:18:45.087Z,4
2023-01-30T05:21:45.090Z,4
2023-01-30T05:24:45.114Z,4
2023-01-30T05:27:45.093Z,4
2023-01-30T05:30:46.383Z,4.1
2023-01-30T05:33:45.130Z,4.1
2023-01-30T05:36:45.112Z,4.1
2023-01-30T05:39:45.130Z,4.1
2023-01-30T05:42:45.128Z,4.2
2023-01-30T05:45:45.122Z,4.2
2023-01-30T05:48:45.129Z,4.2
2023-01-30T05:51:45.155Z,4.2
2023-01-30T05:54:45.161Z,4.3
2023-01-30T05:57:45.143Z,4.3
2023-01-30T06:00:45.148Z,4.3
2023-01-30T06:03:45.193Z,4.4
2023-01-30T06:06:45.153Z,4.4
2023-01-30T06:09:45.198Z,4.4
2023-01-30T06:12:45.171Z,4.5
2023-01-30T06:15:45.213Z,4.5
2023-01-30T06:18:45.179Z,4.6
2023-01-30T06:21:45.177Z,4.6
2023-01-30T06:24:45.187Z,4.7
2023-01-30T06:27:45.215Z,4.7
2023-01-30T06:30:45.213Z,4.8
2023-01-30T06:33:45.189Z,4.8
2023-01-30T06:36:45.192Z,4.9
2023-01-30T06:39:45.209Z,4.9
2023-01-30T06:42:45.237Z,4.9
2023-01-30T06:45:45.228Z,5
2023-01-30T06:48:45.203Z,5
2023-01-30T06:51:45.206Z,5
2023-01-30T06:54:45.216Z,5.1
2023-01-30T06:57:45.210Z,5.1
2023-01-30T07:00:45.217Z,5.2
2023-01-30T07:03:45.276Z,5.2
2023-01-30T07:06:45.224Z,5.2
2023-01-30T07:09:45.646Z,5.2
2023-01-30T07:12:45.240Z,5.2
2023-01-30T07:15:45.241Z,5.2
2023-01-30T07:18:45.243Z,5.1
2023-01-30T07:21:45.275Z,5.1
2023-01-30T07:24:45.269Z,5
2023-01-30T07:27:45.264Z,4.8
2023-01-30T07:30:45.309Z,4.7
2023-01-30T07:33:45.266Z,4.6
2023-01-30T07:36:45.275Z,4.5
2023-01-30T07:39:45.316Z,4.5
2023-01-30T07:42:45.292Z,4.5
2023-01-30T07:45:45.288Z,4.4
2023-01-30T07:48:45.289Z,4.4
2023-01-30T07:51:45.294Z,4.4
2023-01-30T07:54:45.330Z,4.4
2023-01-30T07:57:45.340Z,4.4
2023-01-30T08:00:45.413Z,4.5
2023-01-30T08:03:45.309Z,4.8
2023-01-30T08:06:45.314Z,5
2023-01-30T08:09:45.330Z,5.2
2023-01-30T08:12:45.341Z,5.3
2023-01-30T08:15:45.350Z,5.3
2023-01-30T08:18:45.331Z,5.4
2023-01-30T08:21:45.331Z,5.4
2023-01-30T08:24:45.355Z,5.4
2023-01-30T08:27:45.348Z,5.5
2023-01-30T08:30:45.363Z,5.5
2023-01-30T08:33:45.385Z,5.5
2023-01-30T08:36:45.357Z,5.5
2023-01-30T08:39:45.375Z,5.4
2023-01-30T08:42:45.361Z,5.4
2023-01-30T08:45:45.368Z,5.3
2023-01-30T08:48:49.749Z,5.3
2023-01-30T08:51:45.402Z,5.4
2023-01-30T08:54:45.406Z,5.4
2023-01-30T08:57:45.387Z,5.5
2023-01-30T09:00:47.028Z,5.6
2023-01-30T09:03:45.399Z,5.6
2023-01-30T09:06:45.408Z,5.6
2023-01-30T09:09:45.435Z,5.6
2023-01-30T09:12:45.441Z,5.6
2023-01-30T09:15:45.410Z,5.6
2023-01-30T09:18:45.415Z,5.6
2023-01-30T09:21:45.423Z,5.8
2023-01-30T09:24:45.435Z,5.9
2023-01-30T09:27:45.447Z,5.9
2023-01-30T09:30:45.504Z,6.2
2023-01-30T09:33:45.435Z,6.5
2023-01-30T09:36:45.435Z,6.8
2023-01-30T09:39:45.469Z,6.8
2023-01-30T09:42:45.454Z,6.7
2023-01-30T09:45:45.471Z,6.6
2023-01-30T09:48:45.449Z,6.5
2023-01-30T09:51:45.447Z,6.3
2023-01-30T09:54:45.460Z,6.1
2023-01-30T09:57:45.464Z,5.9
2023-01-30T10:00:45.462Z,5.9
2023-01-30T10:03:45.568Z,5.9
2023-01-30T10:06:45.463Z,6
2023-01-30T10:09:45.476Z,6.1
2023-01-30T10:12:45.469Z,6.2
2023-01-30T10:15:45.492Z,6.3
2023-01-30T10:18:45.473Z,6.4
2023-01-30T10:21:45.506Z,6.4
2023-01-30T10:24:45.498Z,6.5
2023-01-30T10:27:45.567Z,6.5
2023-01-30T10:30:45.585Z,6.4
2023-01-30T10:33:45.480Z,6.4
2023-01-30T10:36:45.501Z,6.5
2023-01-30T10:39:54.759Z,6.6
2023-01-30T10:42:45.483Z,6.9
2023-01-30T10:45:45.492Z,7.3
2023-01-30T10:48:46.392Z,7.5
2023-01-30T10:51:45.494Z,7.6
2023-01-30T10:54:45.520Z,7.5
2023-01-30T10:57:45.545Z,7.4
2023-01-30T11:00:45.533Z,7.3
2023-01-30T11:03:45.545Z,7
2023-01-30T11:06:45.554Z,6.4
2023-01-30T11:09:45.571Z,5.9
2023-01-30T11:12:45.583Z,5.7
2023-01-30T11:15:45.693Z,5.8
2023-01-30T11:21:45.599Z,5.9
2023-01-30T11:24:45.610Z,6
2023-01-30T11:27:45.605Z,5.9
2023-01-30T11:30:45.614Z,5.7
2023-01-30T11:33:45.637Z,5.3
2023-01-30T11:36:45.629Z,5.1
2023-01-30T11:39:45.638Z,4.6
2023-01-30T11:42:45.635Z,4.3
2023-01-30T11:45:45.698Z,4.2
2023-01-30T11:49:02.234Z,4.2
2023-01-30T11:51:45.672Z,4.3
2023-01-30T11:54:45.653Z,4.4
2023-01-30T11:57:45.649Z,4.6
2023-01-30T12:00:45.669Z,4.8
2023-01-30T12:03:45.666Z,4.9
2023-01-30T12:06:45.666Z,5
2023-01-30T12:09:45.732Z,5.2
2023-01-30T12:12:45.678Z,5.3
2023-01-30T12:15:45.677Z,5.4
2023-01-30T12:18:45.676Z,5.6
2023-01-30T12:21:45.679Z,5.7
2023-01-30T12:24:45.688Z,5.7
2023-01-30T12:27:45.713Z,5.6
2023-01-30T12:30:45.684Z,5.4
2023-01-30T12:33:45.686Z,5.1
2023-01-30T12:36:45.698Z,4.9
2023-01-30T12:39:46.755Z,4.7
2023-01-30T12:42:45.703Z,4.7
2023-01-30T12:45:45.890Z,4.6
2023-01-30T12:48:48.994Z,4.5
2023-01-30T12:51:45.719Z,4.4
2023-01-30T12:54:45.764Z,4.4
2023-01-30T12:57:45.729Z,4.4
2023-01-30T13:00:45.733Z,4.5
2023-01-30T13:03:45.757Z,4.5
2023-01-30T13:06:45.733Z,4.5
2023-01-30T13:09:45.747Z,4.5
2023-01-30T13:12:45.744Z,4.5
2023-01-30T13:15:45.797Z,4.7
2023-01-30T13:18:45.758Z,4.8
2023-01-30T13:21:45.789Z,4.9
2023-01-30T13:24:45.786Z,5
2023-01-30T13:27:45.769Z,5.1
2023-01-30T13:30:45.768Z,5.1
2023-01-30T13:33:45.774Z,5.1
2023-01-30T13:36:45.775Z,5.2
2023-01-30T13:39:45.813Z,5.3
2023-01-30T13:42:45.790Z,5.4
2023-01-30T13:45:45.787Z,5.4
2023-01-30T13:48:45.789Z,5.3
2023-01-30T13:51:45.792Z,5.3
2023-01-30T13:54:45.848Z,5.4
2023-01-30T13:57:45.850Z,5.6
2023-01-30T14:00:45.930Z,5.5
2023-01-30T14:03:45.832Z,5.4
2023-01-30T14:06:45.830Z,5.4
2023-01-30T14:09:45.862Z,5.4
2023-01-30T14:12:45.880Z,5.5
2023-01-30T14:15:45.908Z,5.6
2023-01-30T14:18:45.864Z,5.7
2023-01-30T14:21:45.859Z,5.8
2023-01-30T14:24:45.923Z,5.8
2023-01-30T14:27:45.862Z,5.9
2023-01-30T14:30:45.872Z,6.1
2023-01-30T14:33:45.896Z,6.3
2023-01-30T14:36:45.880Z,6.4
2023-01-30T14:39:45.889Z,6.4
2023-01-30T14:42:46.231Z,6.4
2023-01-30T14:45:45.888Z,6.5
2023-01-30T14:48:45.888Z,6.3
2023-01-30T14:51:45.924Z,6.1
2023-01-30T14:54:45.910Z,5.9
2023-01-30T14:57:45.903Z,5.8
2023-01-30T15:00:45.938Z,5.7
2023-01-30T15:03:45.907Z,5.7
2023-01-30T15:06:45.912Z,5.6
2023-01-30T15:09:45.956Z,5.5
2023-01-30T15:12:45.920Z,5.3
2023-01-30T15:15:45.923Z,5.2
2023-01-30T15:18:45.932Z,5.1
2023-01-30T15:21:45.931Z,5.1
2023-01-30T15:24:45.950Z,5
2023-01-30T15:27:45.965Z,5
2023-01-30T15:30:46.008Z,5.1
2023-01-30T15:33:45.944Z,5.1
2023-01-30T15:36:45.950Z,5.1
2023-01-30T15:39:45.966Z,5.1
2023-01-30T15:42:45.971Z,5.1
2023-01-30T15:45:46.093Z,5.2
2023-01-30T15:48:45.965Z,5.2
2023-01-30T15:51:45.972Z,5.2
2023-01-30T15:54:48.187Z,5.2
2023-01-30T15:57:45.977Z,5.1
2023-01-30T16:00:46.003Z,5
2023-01-30T16:03:46.026Z,4.9
2023-01-30T16:06:45.996Z,4.8
2023-01-30T16:09:52.237Z,4.8
2023-01-30T16:12:46.013Z,4.8
2023-01-30T16:15:46.011Z,4.9
2023-01-30T16:18:46.008Z,4.9
2023-01-30T16:21:46.043Z,4.9
2023-01-30T16:24:46.029Z,4.8
2023-01-30T16:27:46.019Z,4.7
2023-01-30T16:30:46.138Z,4.6
2023-01-30T16:33:46.028Z,4.7
2023-01-30T16:36:46.032Z,4.7
2023-01-30T16:39:46.064Z,4.7
2023-01-30T16:42:46.042Z,4.6
2023-01-30T16:45:46.065Z,4.5
2023-01-30T16:48:46.044Z,4.5
2023-01-30T16:51:46.056Z,4.4
2023-01-30T16:54:46.068Z,4.4
2023-01-30T16:57:46.099Z,4.3
2023-01-30T17:00:46.080Z,4.3
2023-01-30T17:03:46.096Z,4.3
2023-01-30T17:06:46.075Z,4.2
2023-01-30T17:09:46.205Z,4.2
2023-01-30T17:12:46.082Z,4.2
2023-01-30T17:15:46.185Z,4.2
2023-01-30T17:18:46.086Z,4.1
2023-01-30T17:21:46.099Z,4
2023-01-30T17:24:46.095Z,4.1
2023-01-30T17:27:46.096Z,4.1
2023-01-30T17:30:46.165Z,4.1
2023-01-30T17:33:46.139Z,4.2
2023-01-30T17:36:46.118Z,4.3
2023-01-30T17:39:46.141Z,4.3
2023-01-30T17:42:46.131Z,4.4
2023-01-30T17:45:46.137Z,4.5
2023-01-30T17:48:46.141Z,4.6
2023-01-30T17:51:46.175Z,4.6
2023-01-30T17:54:46.159Z,4.7
2023-01-30T17:57:46.168Z,4.8
2023-01-30T18:00:46.163Z,4.7
2023-01-30T18:03:46.179Z,4.7
2023-01-30T18:06:46.164Z,4.7
2023-01-30T18:09:46.199Z,4.7
2023-01-30T18:12:46.177Z,4.7
2023-01-30T18:15:46.181Z,4.6
2023-01-30T18:18:46.179Z,4.6
2023-01-30T18:21:46.185Z,4.5
2023-01-30T18:24:46.187Z,4.6
2023-01-30T18:27:46.219Z,4.6
2023-01-30T18:30:46.308Z,4.4
2023-01-30T18:33:46.193Z,4.4
2023-01-30T18:36:46.200Z,4.4
2023-01-30T18:39:46.204Z,4.4
2023-01-30T18:42:46.206Z,4.4
2023-01-30T18:45:46.236Z,4.4
2023-01-30T18:48:46.209Z,4.4
2023-01-30T18:51:46.215Z,4.4
2023-01-30T18:54:46.232Z,4.4
2023-01-30T18:57:46.232Z,4.4
2023-01-30T19:00:46.233Z,4.3
2023-01-30T19:03:46.272Z,4.4
2023-01-30T19:06:46.244Z,4.4
2023-01-30T19:09:46.244Z,4.3
2023-01-30T19:12:46.249Z,4.2
2023-01-30T19:15:46.289Z,4.1
2023-01-30T19:18:46.253Z,4.1
2023-01-30T19:21:46.287Z,4
2023-01-30T19:24:46.263Z,4
2023-01-30T19:27:46.265Z,4
2023-01-30T19:30:46.408Z,4
2023-01-30T19:33:46.281Z,4.1
2023-01-30T19:36:46.279Z,4.1
2023-01-30T19:39:46.313Z,4.1
2023-01-30T19:42:46.574Z,4
2023-01-30T19:45:46.289Z,4
2023-01-30T19:48:46.293Z,4
2023-01-30T19:51:46.308Z,4
2023-01-30T19:54:46.301Z,4
2023-01-30T19:57:46.335Z,3.9
2023-01-30T20:00:46.311Z,3.9
2023-01-30T20:03:46.321Z,4
2023-01-30T20:06:46.327Z,4.1
2023-01-30T20:09:46.325Z,4.1
2023-01-30T20:12:46.327Z,4.2
2023-01-30T20:15:46.387Z,4.1
2023-01-30T20:18:46.332Z,4.1
2023-01-30T20:21:46.340Z,4
2023-01-30T20:24:46.341Z,3.9
2023-01-30T20:27:46.345Z,3.8
2023-01-30T20:30:46.370Z,3.8
2023-01-30T20:33:46.379Z,3.8
2023-01-30T20:36:46.365Z,3.8
2023-01-30T20:39:46.372Z,3.9
2023-01-30T20:42:46.380Z,4
2023-01-30T20:45:46.380Z,4
2023-01-30T20:48:46.395Z,4
2023-01-30T20:51:46.409Z,4.1
2023-01-30T20:54:46.394Z,4.1
2023-01-30T20:57:46.396Z,4.2
2023-01-30T21:00:46.456Z,4.2
2023-01-30T21:03:46.429Z,4.3
2023-01-30T21:06:47.091Z,4.3
2023-01-30T21:09:46.453Z,4.3
2023-01-30T21:12:46.415Z,4.3
2023-01-30T21:15:46.421Z,4.3
2023-01-30T21:18:46.422Z,4.3
2023-01-30T21:21:48.091Z,4.3
2023-01-30T21:24:46.431Z,4.4
2023-01-30T21:27:46.457Z,4.3
2023-01-30T21:30:44.519Z,4.2
2023-01-30T21:33:44.485Z,4.2
2023-01-30T21:35:54.014Z,4.1
2023-01-30T21:38:54.041Z,4.1
2023-01-30T21:41:54.053Z,4.1
2023-01-30T21:44:54.207Z,4.1
2023-01-30T21:47:54.102Z,4.1
2023-01-30T21:50:54.105Z,4
2023-01-30T21:53:54.126Z,4
2023-01-30T21:56:54.145Z,4
2023-01-30T21:59:54.197Z,4
2023-01-30T22:02:54.199Z,4.1
2023-01-30T22:05:54.618Z,4.1
2023-01-30T22:08:54.244Z,4.1
2023-01-30T22:11:54.242Z,4.1
2023-01-30T22:14:54.795Z,4.1
2023-01-30T22:17:54.435Z,4.2
2023-01-30T22:20:54.316Z,4.1
2023-01-30T22:23:54.859Z,4.1
2023-01-30T22:26:54.588Z,4.1
2023-01-30T22:29:54.348Z,4.1
2023-01-30T22:32:54.817Z,4
2023-01-30T22:35:54.735Z,4.1
2023-01-30T22:38:54.434Z,4.1
2023-01-30T22:41:54.980Z,4.1
2023-01-30T22:44:54.653Z,4.1
2023-01-30T22:47:54.505Z,4.1
2023-01-30T22:50:54.470Z,4.1
2023-01-30T22:53:54.491Z,4.1
2023-01-30T22:56:54.527Z,4
2023-01-30T22:59:54.519Z,4
2023-01-30T23:02:54.534Z,4
2023-01-30T23:05:54.551Z,4
2023-01-30T23:08:54.565Z,3.9
2023-01-30T23:11:54.589Z,3.9
2023-01-30T23:14:54.627Z,3.9
2023-01-30T23:17:54.612Z,3.9
2023-01-30T23:20:54.637Z,3.9
2023-01-30T23:23:54.651Z,3.9
2023-01-30T23:26:54.671Z,3.9
2023-01-30T23:29:54.697Z,3.9
2023-01-30T23:32:54.740Z,3.8
2023-01-30T23:35:54.723Z,3.8
2023-01-30T23:38:54.744Z,3.8
2023-01-30T23:41:54.760Z,3.7
2023-01-30T23:44:54.779Z,3.7
2023-01-30T23:47:54.795Z,3.7
2023-01-30T23:50:54.838Z,3.6
2023-01-30T23:53:54.832Z,3.5
2023-01-30T23:56:54.848Z,3.5
2023-01-30T23:59:54.864Z,3.6
